createdAt,value
2018-03-11T00:00:08.803Z,27.08
2018-03-11T00:01:09.375Z,26.51
2018-03-11T00:02:09.946Z,26.32
2018-03-11T00:03:10.519Z,26.61
2018-03-11T00:04:11.090Z,25.94
2018-03-11T00:05:11.664Z,26.70
2018-03-11T00:06:12.248Z,26.42
2018-03-11T00:07:12.820Z,26.22
2018-03-11T00:08:13.391Z,26.51
2018-03-11T00:09:13.964Z,26.61
2018-03-11T00:10:14.598Z,25.46
2018-03-11T00:11:15.109Z,26.70
2018-03-11T00:12:15.683Z,27.27
2018-03-11T00:13:16.255Z,27.37
2018-03-11T00:14:16.838Z,26.98
2018-03-11T00:15:17.410Z,26.22
2018-03-11T00:16:17.982Z,26.32
2018-03-11T00:17:18.565Z,25.65
2018-03-11T00:18:19.137Z,25.74
2018-03-11T00:19:19.709Z,25.46
2018-03-11T00:20:20.294Z,25.27
2018-03-11T00:21:20.867Z,24.89
2018-03-11T00:22:21.450Z,25.37
2018-03-11T00:23:22.024Z,24.69
2018-03-11T00:24:22.596Z,25.18
2018-03-11T00:25:23.168Z,25.08
2018-03-11T00:26:23.740Z,24.89
2018-03-11T00:27:24.313Z,24.98
2018-03-11T00:28:24.886Z,24.79
2018-03-11T00:29:25.456Z,25.08
2018-03-11T00:30:26.030Z,24.79
2018-03-11T00:31:26.602Z,23.93
2018-03-11T00:32:27.178Z,23.93
2018-03-11T00:33:27.757Z,24.22
2018-03-11T00:34:28.329Z,23.27
2018-03-11T00:35:28.900Z,23.93
2018-03-11T00:36:29.471Z,23.84
2018-03-11T00:37:30.043Z,24.13
2018-03-11T00:38:30.614Z,23.74
2018-03-11T00:39:31.185Z,24.51
2018-03-11T00:40:31.760Z,24.60
2018-03-11T00:41:32.333Z,23.84
2018-03-11T00:42:32.910Z,24.32
2018-03-11T00:43:33.481Z,24.41
2018-03-11T00:44:34.052Z,24.89
2018-03-11T00:45:34.625Z,24.89
2018-03-11T00:46:35.197Z,23.28
2018-03-11T00:47:35.770Z,24.51
2018-03-11T00:48:36.342Z,24.13
2018-03-11T00:49:36.915Z,24.41
2018-03-11T00:50:37.489Z,24.60
2018-03-11T00:51:38.061Z,24.98
2018-03-11T00:52:38.634Z,25.08
2018-03-11T00:53:39.206Z,24.89
2018-03-11T00:54:39.782Z,24.60
2018-03-11T00:55:40.356Z,24.41
2018-03-11T00:56:40.924Z,24.51
2018-03-11T00:57:41.496Z,24.32
2018-03-11T00:58:42.067Z,24.32
2018-03-11T00:59:42.638Z,24.03
2018-03-11T01:00:43.212Z,23.17
2018-03-11T01:01:43.785Z,22.89
2018-03-11T01:02:44.357Z,22.89
2018-03-11T01:03:44.932Z,22.69
2018-03-11T01:04:45.503Z,22.22
2018-03-11T01:05:46.075Z,22.41
2018-03-11T01:06:46.648Z,22.60
2018-03-11T01:07:47.219Z,22.89
2018-03-11T01:08:47.790Z,22.60
2018-03-11T01:09:48.362Z,23.46
2018-03-11T01:10:48.933Z,23.08
2018-03-11T01:11:49.504Z,23.17
2018-03-11T01:12:50.081Z,22.89
2018-03-11T01:13:50.653Z,22.79
2018-03-11T01:14:51.226Z,22.60
2018-03-11T01:15:51.809Z,22.60
2018-03-11T01:16:52.382Z,22.79
2018-03-11T01:17:52.956Z,22.79
2018-03-11T01:18:53.527Z,22.89
2018-03-11T01:19:54.102Z,22.79
2018-03-11T01:20:54.673Z,22.69
2018-03-11T01:21:55.245Z,22.60
2018-03-11T01:22:55.815Z,22.50
2018-03-11T01:23:56.390Z,22.31
2018-03-11T01:24:56.957Z,21.74
2018-03-11T01:25:57.541Z,21.55
2018-03-11T01:26:58.116Z,21.45
2018-03-11T01:27:58.687Z,21.36
2018-03-11T01:28:59.260Z,21.45
2018-03-11T01:29:59.832Z,21.64
2018-03-11T01:31:00.405Z,21.17
2018-03-11T01:32:00.976Z,21.45
2018-03-11T01:33:01.548Z,21.45
2018-03-11T01:34:02.121Z,21.55
2018-03-11T01:35:02.711Z,21.17
2018-03-11T01:36:03.267Z,21.17
2018-03-11T01:37:03.841Z,21.36
2018-03-11T01:38:04.412Z,20.88
2018-03-11T01:39:04.983Z,20.12
2018-03-11T01:40:05.554Z,19.45
2018-03-11T01:41:06.127Z,19.35
2018-03-11T01:42:06.787Z,19.17
2018-03-11T01:43:07.270Z,18.77
2018-03-11T01:44:07.841Z,18.40
2018-03-11T01:45:08.413Z,18.49
2018-03-11T01:46:08.985Z,17.82
2018-03-11T01:47:09.559Z,18.49
2018-03-11T01:48:10.143Z,18.01
2018-03-11T01:49:10.726Z,18.11
2018-03-11T01:50:11.300Z,17.72
2018-03-11T01:51:11.871Z,17.54
2018-03-11T01:52:12.444Z,16.77
2018-03-11T01:53:13.015Z,16.58
2018-03-11T01:54:13.585Z,16.58
2018-03-11T01:55:14.162Z,17.16
2018-03-11T01:56:14.731Z,17.44
2018-03-11T01:57:15.302Z,17.44
2018-03-11T01:58:15.886Z,16.87
2018-03-11T01:59:16.456Z,17.06
2018-03-11T02:00:17.028Z,16.87
2018-03-11T02:01:17.601Z,16.30
2018-03-11T02:02:18.172Z,16.30
2018-03-11T02:03:18.743Z,16.30
2018-03-11T02:04:19.314Z,16.77
2018-03-11T02:05:19.887Z,16.68
2018-03-11T02:06:20.460Z,16.39
2018-03-11T02:07:21.033Z,16.49
2018-03-11T02:08:21.607Z,15.53
2018-03-11T02:09:22.177Z,15.53
2018-03-11T02:10:22.748Z,15.72
2018-03-11T02:11:23.320Z,16.30
2018-03-11T02:12:23.893Z,15.06
2018-03-11T02:13:24.465Z,15.62
2018-03-11T02:14:25.036Z,15.62
2018-03-11T02:15:25.610Z,15.34
2018-03-11T02:16:26.191Z,14.86
2018-03-11T02:17:26.763Z,15.44
2018-03-11T02:18:27.336Z,15.62
2018-03-11T02:19:27.907Z,14.76
2018-03-11T02:20:28.478Z,14.86
2018-03-11T02:21:29.050Z,15.62
2018-03-11T02:22:29.623Z,16.29
2018-03-11T02:23:30.195Z,16.58
2018-03-11T02:24:30.768Z,16.67
2018-03-11T02:25:31.347Z,16.58
2018-03-11T02:26:44.650Z,16.48
2018-03-11T02:27:45.224Z,16.77
2018-03-11T02:28:45.806Z,16.38
2018-03-11T02:29:46.386Z,16.58
2018-03-11T02:30:46.958Z,16.38
2018-03-11T02:31:47.528Z,16.29
2018-03-11T02:32:48.100Z,15.71
2018-03-11T02:33:48.670Z,14.00
2018-03-11T02:34:49.242Z,14.28
2018-03-11T02:35:49.811Z,13.42
2018-03-11T02:36:50.383Z,14.47
2018-03-11T02:37:50.953Z,15.05
2018-03-11T02:38:51.524Z,14.85
2018-03-11T02:39:52.096Z,14.57
2018-03-11T02:40:52.667Z,12.57
2018-03-11T02:41:53.240Z,13.04
2018-03-11T02:42:53.812Z,11.90
2018-03-11T02:43:54.385Z,10.85
2018-03-11T02:44:54.956Z,9.80
2018-03-11T02:45:55.526Z,9.23
2018-03-11T02:46:56.107Z,9.52
2018-03-11T02:47:56.677Z,10.00
2018-03-11T02:48:57.248Z,11.04
2018-03-11T02:49:57.820Z,9.33
2018-03-11T02:50:58.391Z,8.66
2018-03-11T02:51:58.963Z,9.80
2018-03-11T02:52:59.543Z,10.08
2018-03-11T02:54:00.112Z,9.23
2018-03-11T02:55:00.683Z,8.47
2018-03-11T02:56:01.252Z,8.94
2018-03-11T02:57:01.824Z,9.70
2018-03-11T02:58:02.391Z,10.37
2018-03-11T02:59:02.965Z,10.37
2018-03-11T03:00:03.529Z,10.28
2018-03-11T03:01:04.100Z,11.32
2018-03-11T03:02:04.675Z,10.37
2018-03-11T03:03:05.252Z,8.94
2018-03-11T03:04:05.823Z,9.42
2018-03-11T03:05:06.394Z,8.18
2018-03-11T03:06:06.971Z,7.61
2018-03-11T03:07:07.534Z,7.14
2018-03-11T03:08:08.110Z,6.76
2018-03-11T03:09:08.682Z,7.52
2018-03-11T03:10:09.247Z,6.95
2018-03-11T03:11:09.816Z,6.95
2018-03-11T03:12:10.391Z,6.85
2018-03-11T03:13:10.956Z,6.67
2018-03-11T03:14:11.527Z,6.28
2018-03-11T03:15:12.108Z,6.09
2018-03-11T03:16:12.686Z,5.99
2018-03-11T03:17:13.251Z,6.57
2018-03-11T03:18:13.822Z,7.23
2018-03-11T03:19:14.393Z,8.00
2018-03-11T03:20:14.963Z,6.95
2018-03-11T03:21:15.535Z,7.33
2018-03-11T03:22:16.105Z,8.00
2018-03-11T03:23:16.676Z,8.47
2018-03-11T03:24:17.245Z,8.47
2018-03-11T03:25:17.814Z,8.18
2018-03-11T03:26:18.381Z,7.42
2018-03-11T03:27:18.952Z,6.66
2018-03-11T03:28:19.521Z,6.09
2018-03-11T03:29:20.092Z,5.52
2018-03-11T03:30:20.661Z,5.52
2018-03-11T03:31:21.232Z,5.14
2018-03-11T03:32:21.803Z,5.42
2018-03-11T03:33:22.371Z,5.42
2018-03-11T03:34:22.937Z,5.04
2018-03-11T03:35:23.509Z,5.80
2018-03-11T03:36:24.078Z,5.52
2018-03-11T03:37:24.648Z,4.47
2018-03-11T03:38:25.219Z,4.66
2018-03-11T03:39:25.786Z,4.57
2018-03-11T03:40:26.355Z,5.14
2018-03-11T03:41:26.925Z,6.18
2018-03-11T03:42:27.494Z,5.99
2018-03-11T03:43:28.063Z,6.09
2018-03-11T03:44:28.633Z,5.71
2018-03-11T03:45:29.201Z,5.71
2018-03-11T03:46:29.770Z,4.75
2018-03-11T03:47:30.339Z,4.57
2018-03-11T03:48:30.908Z,2.95
2018-03-11T03:49:31.477Z,1.62
2018-03-11T03:50:32.047Z,1.14
2018-03-11T03:51:32.618Z,0.00
2018-03-11T03:52:33.197Z,0.00
2018-03-11T03:53:33.766Z,0.00
2018-03-11T03:54:34.335Z,0.00
2018-03-11T03:55:34.902Z,0.00
2018-03-11T03:56:35.470Z,0.00
2018-03-11T03:57:36.040Z,0.00
2018-03-11T03:58:36.608Z,0.00
2018-03-11T03:59:37.177Z,0.00
2018-03-11T04:00:37.745Z,0.00
2018-03-11T04:01:38.319Z,0.19
2018-03-11T04:02:38.895Z,1.23
2018-03-11T04:03:39.462Z,1.14
2018-03-11T04:04:40.029Z,0.67
2018-03-11T04:05:40.596Z,1.04
2018-03-11T04:06:41.164Z,0.00
2018-03-11T04:07:41.734Z,0.00
2018-03-11T04:08:42.314Z,0.09
2018-03-11T04:09:42.884Z,0.19
2018-03-11T04:10:43.451Z,1.04
2018-03-11T04:11:44.023Z,2.00
2018-03-11T04:12:44.588Z,2.09
2018-03-11T04:13:45.157Z,2.00
2018-03-11T04:14:45.724Z,1.14
2018-03-11T04:15:46.305Z,1.90
2018-03-11T04:16:46.874Z,2.56
2018-03-11T04:17:47.443Z,2.75
2018-03-11T04:18:48.013Z,3.70
2018-03-11T04:19:48.582Z,3.90
2018-03-11T04:20:49.153Z,4.75
2018-03-11T04:21:49.721Z,5.90
2018-03-11T04:22:50.290Z,6.56
2018-03-11T04:23:50.860Z,7.51
2018-03-11T04:24:51.431Z,8.75
2018-03-11T04:25:52.000Z,9.80
2018-03-11T04:26:52.571Z,10.08
2018-03-11T04:27:53.140Z,9.12
2018-03-11T04:28:53.709Z,9.03
2018-03-11T04:29:54.277Z,9.22
2018-03-11T04:30:54.847Z,9.89
2018-03-11T04:31:55.416Z,10.27
2018-03-11T04:32:55.986Z,10.08
2018-03-11T04:33:56.566Z,10.08
2018-03-11T04:34:57.134Z,9.79
2018-03-11T04:35:57.703Z,9.31
2018-03-11T04:36:58.280Z,8.36
2018-03-11T04:37:58.848Z,9.22
2018-03-11T04:38:59.419Z,8.65
2018-03-11T04:39:59.988Z,7.03
2018-03-11T04:41:00.569Z,6.37
2018-03-11T04:42:01.137Z,6.18
2018-03-11T04:43:01.706Z,5.41
2018-03-11T04:44:02.277Z,5.80
2018-03-11T04:45:02.842Z,5.41
2018-03-11T04:46:03.410Z,5.13
2018-03-11T04:47:03.978Z,4.56
2018-03-11T04:48:04.548Z,5.70
2018-03-11T04:49:05.116Z,6.18
2018-03-11T04:50:05.688Z,3.23
2018-03-11T04:51:06.260Z,5.41
2018-03-11T04:52:06.830Z,3.89
2018-03-11T04:53:07.399Z,5.41
2018-03-11T04:54:07.962Z,5.99
2018-03-11T04:55:08.529Z,7.60
2018-03-11T04:56:09.100Z,9.50
2018-03-11T04:57:09.667Z,9.98
2018-03-11T04:58:10.237Z,9.79
2018-03-11T04:59:10.807Z,10.83
2018-03-11T05:00:11.377Z,11.31
2018-03-11T05:01:11.944Z,9.89
2018-03-11T05:02:12.515Z,10.93
2018-03-11T05:03:13.085Z,12.74
2018-03-11T05:04:13.654Z,12.93
2018-03-11T05:05:14.225Z,13.69
2018-03-11T05:06:14.793Z,14.73
2018-03-11T05:07:15.361Z,13.02
2018-03-11T05:08:15.930Z,13.69
2018-03-11T05:09:16.529Z,13.21
2018-03-11T05:10:17.080Z,12.55
2018-03-11T05:11:17.650Z,13.31
2018-03-11T05:12:18.221Z,13.31
2018-03-11T05:13:18.790Z,13.69
2018-03-11T05:14:19.369Z,11.12
2018-03-11T05:15:19.949Z,13.59
2018-03-11T05:16:20.520Z,14.26
2018-03-11T05:17:21.086Z,13.21
2018-03-11T05:18:21.657Z,15.40
2018-03-11T05:19:22.224Z,15.40
2018-03-11T05:20:22.794Z,16.35
2018-03-11T05:21:23.362Z,15.02
2018-03-11T05:22:23.932Z,17.30
2018-03-11T05:23:24.501Z,17.58
2018-03-11T05:24:25.070Z,16.64
2018-03-11T05:25:25.639Z,16.35
2018-03-11T05:26:26.208Z,14.73
2018-03-11T05:27:26.776Z,16.06
2018-03-11T05:28:27.346Z,16.45
2018-03-11T05:29:27.915Z,13.31
2018-03-11T05:30:28.486Z,13.31
2018-03-11T05:31:29.053Z,13.12
2018-03-11T05:32:29.622Z,15.77
2018-03-11T05:33:30.190Z,14.07
2018-03-11T05:34:30.758Z,13.50
2018-03-11T05:35:31.337Z,13.30
2018-03-11T05:36:31.906Z,14.54
2018-03-11T05:37:32.474Z,16.25
2018-03-11T05:38:33.043Z,17.01
2018-03-11T05:39:33.611Z,15.68
2018-03-11T05:40:34.180Z,14.92
2018-03-11T05:41:34.760Z,13.02
2018-03-11T05:42:35.328Z,12.63
2018-03-11T05:43:35.898Z,11.97
2018-03-11T05:44:36.466Z,11.30
2018-03-11T05:45:37.041Z,11.30
2018-03-11T05:46:37.604Z,11.40
2018-03-11T05:47:38.174Z,11.60
2018-03-11T05:48:38.744Z,11.69
2018-03-11T05:49:39.312Z,12.26
2018-03-11T05:50:39.882Z,11.88
2018-03-11T05:51:40.450Z,10.64
2018-03-11T05:52:41.017Z,9.98
2018-03-11T05:53:41.587Z,10.36
2018-03-11T05:54:42.156Z,11.31
2018-03-11T05:55:42.724Z,12.07
2018-03-11T05:56:43.293Z,11.60
2018-03-11T05:57:43.861Z,12.73
2018-03-11T05:58:44.441Z,12.17
2018-03-11T05:59:45.013Z,12.35
2018-03-11T06:00:45.583Z,7.12
2018-03-11T06:01:46.151Z,5.79
2018-03-11T06:02:46.722Z,6.46
2018-03-11T06:03:47.290Z,8.26
2018-03-11T06:04:47.860Z,6.08
2018-03-11T06:05:48.430Z,5.22
2018-03-11T06:06:48.998Z,4.94
2018-03-11T06:07:49.567Z,4.37
2018-03-11T06:08:50.135Z,4.37
2018-03-11T06:09:50.704Z,6.08
2018-03-11T06:10:51.272Z,5.89
2018-03-11T06:11:51.840Z,5.51
2018-03-11T06:12:52.408Z,4.56
2018-03-11T06:13:52.977Z,5.41
2018-03-11T06:14:53.545Z,5.51
2018-03-11T06:15:54.114Z,4.28
2018-03-11T06:16:54.751Z,4.56
2018-03-11T06:17:55.252Z,3.99
2018-03-11T06:18:55.824Z,3.33
2018-03-11T06:19:56.387Z,1.80
2018-03-11T06:20:56.956Z,1.90
2018-03-11T06:21:57.524Z,2.66
2018-03-11T06:22:58.094Z,2.19
2018-03-11T06:23:58.661Z,1.71
2018-03-11T06:24:59.229Z,2.00
2018-03-11T06:25:59.797Z,2.47
2018-03-11T06:27:00.365Z,0.28
2018-03-11T06:28:00.936Z,1.04
2018-03-11T06:29:01.503Z,1.14
2018-03-11T06:30:02.082Z,1.71
2018-03-11T06:31:02.651Z,0.57
2018-03-11T06:32:03.222Z,0.28
2018-03-11T06:33:03.791Z,1.23
2018-03-11T06:34:04.361Z,0.57
2018-03-11T06:35:04.930Z,0.00
2018-03-11T06:36:05.498Z,0.95
2018-03-11T06:37:06.067Z,2.00
2018-03-11T06:38:06.637Z,1.42
2018-03-11T06:39:07.206Z,1.52
2018-03-11T06:40:07.778Z,1.52
2018-03-11T06:41:08.347Z,1.71
2018-03-11T06:42:08.918Z,1.61
2018-03-11T06:43:09.488Z,1.42
2018-03-11T06:44:10.110Z,2.85
2018-03-11T06:45:10.625Z,2.66
2018-03-11T06:46:11.195Z,2.28
2018-03-11T06:47:11.775Z,2.85
2018-03-11T06:48:12.345Z,1.04
2018-03-11T06:49:12.915Z,1.42
2018-03-11T06:50:13.485Z,2.94
2018-03-11T06:51:14.056Z,1.52
2018-03-11T06:52:14.654Z,0.00
2018-03-11T06:53:15.205Z,1.04
2018-03-11T06:54:15.777Z,0.38
2018-03-11T06:55:16.358Z,0.00
2018-03-11T06:56:16.932Z,0.00
2018-03-11T06:57:17.501Z,0.00
2018-03-11T06:58:18.071Z,0.00
2018-03-11T06:59:18.643Z,0.00
2018-03-11T07:00:19.211Z,0.00
2018-03-11T07:01:19.784Z,0.00
2018-03-11T07:02:20.353Z,0.00
2018-03-11T07:03:20.924Z,0.00
2018-03-11T07:04:21.493Z,0.00
2018-03-11T07:05:22.061Z,0.00
2018-03-11T07:06:22.631Z,0.00
2018-03-11T07:07:23.199Z,0.00
2018-03-11T07:08:23.768Z,0.00
2018-03-11T07:09:24.337Z,0.00
2018-03-11T07:10:24.907Z,0.00
2018-03-11T07:11:25.476Z,0.00
2018-03-11T07:12:26.046Z,0.00
2018-03-11T07:13:26.627Z,0.00
2018-03-11T07:14:27.199Z,0.00
2018-03-11T07:15:27.768Z,0.00
2018-03-11T07:16:28.338Z,0.00
2018-03-11T07:17:28.906Z,0.00
2018-03-11T07:18:29.475Z,0.00
2018-03-11T07:19:30.046Z,0.00
2018-03-11T07:20:30.617Z,0.00
2018-03-11T07:21:31.187Z,0.00
2018-03-11T07:22:31.755Z,0.00
2018-03-11T07:23:32.326Z,0.00
2018-03-11T07:24:32.906Z,0.00
2018-03-11T07:25:33.478Z,0.00
2018-03-11T07:26:34.048Z,0.00
2018-03-11T07:27:34.618Z,0.00
2018-03-11T07:28:35.188Z,0.00
2018-03-11T07:29:35.762Z,0.00
2018-03-11T07:30:36.339Z,0.00
2018-03-11T07:31:36.910Z,0.00
2018-03-11T07:32:37.480Z,0.00
2018-03-11T07:33:38.054Z,0.00
2018-03-11T07:34:38.622Z,0.00
2018-03-11T07:35:39.192Z,0.00
2018-03-11T07:36:39.765Z,0.00
2018-03-11T07:37:40.344Z,0.00
2018-03-11T07:38:40.916Z,0.00
2018-03-11T07:39:41.490Z,0.00
2018-03-11T07:40:42.074Z,0.00
2018-03-11T07:41:42.645Z,0.00
2018-03-11T07:42:43.218Z,0.00
2018-03-11T07:43:43.790Z,0.00
2018-03-11T07:44:44.372Z,0.00
2018-03-11T07:45:44.946Z,0.00
2018-03-11T07:46:45.530Z,0.00
2018-03-11T07:47:46.102Z,0.00
2018-03-11T07:48:46.686Z,0.00
2018-03-11T07:49:47.268Z,0.00
2018-03-11T07:50:47.840Z,0.00
2018-03-11T07:51:48.413Z,0.00
2018-03-11T07:52:48.995Z,0.00
2018-03-11T07:53:49.568Z,0.00
2018-03-11T07:54:50.143Z,0.00
2018-03-11T07:55:50.723Z,0.00
2018-03-11T07:56:51.295Z,0.00
2018-03-11T07:57:51.867Z,0.00
2018-03-11T07:58:52.451Z,0.00
2018-03-11T07:59:53.033Z,0.00
2018-03-11T08:00:53.606Z,0.00
2018-03-11T08:01:54.181Z,0.00
2018-03-11T08:02:54.754Z,0.00
2018-03-11T08:03:55.325Z,0.00
2018-03-11T08:04:55.898Z,0.00
2018-03-11T08:05:56.472Z,0.09
2018-03-11T08:06:57.045Z,0.09
2018-03-11T08:07:57.617Z,0.48
2018-03-11T08:08:58.190Z,1.04
2018-03-11T08:09:58.761Z,0.67
2018-03-11T08:10:59.345Z,1.14
2018-03-11T08:11:59.918Z,1.52
2018-03-11T08:13:00.490Z,2.28
2018-03-11T08:14:01.065Z,2.28
2018-03-11T08:15:01.639Z,3.05
2018-03-11T08:16:02.213Z,2.95
2018-03-11T08:17:02.790Z,4.00
2018-03-11T08:18:03.368Z,4.48
2018-03-11T08:19:03.943Z,4.10
2018-03-11T08:20:04.518Z,4.96
2018-03-11T08:21:05.089Z,4.76
2018-03-11T08:22:05.664Z,5.62
2018-03-11T08:23:06.237Z,6.29
2018-03-11T08:24:06.815Z,6.67
2018-03-11T08:25:07.384Z,6.48
2018-03-11T08:26:07.958Z,7.62
2018-03-11T08:27:08.530Z,7.53
2018-03-11T08:28:09.103Z,7.91
2018-03-11T08:29:09.676Z,8.29
2018-03-11T08:30:10.252Z,10.00
2018-03-11T08:31:10.825Z,9.91
2018-03-11T08:32:11.399Z,10.77
2018-03-11T08:33:11.974Z,11.16
2018-03-11T08:34:12.550Z,12.77
2018-03-11T08:35:13.125Z,12.20
2018-03-11T08:36:13.700Z,13.54
2018-03-11T08:37:14.274Z,13.25
2018-03-11T08:38:14.850Z,13.73
2018-03-11T08:39:15.425Z,13.45
2018-03-11T08:40:15.999Z,14.01
2018-03-11T08:41:16.574Z,14.30
2018-03-11T08:42:17.149Z,14.40
2018-03-11T08:43:17.737Z,14.59
2018-03-11T08:44:18.306Z,15.45
2018-03-11T08:45:18.880Z,15.73
2018-03-11T08:46:19.455Z,15.64
2018-03-11T08:47:20.037Z,15.83
2018-03-11T08:48:20.627Z,16.39
2018-03-11T08:49:21.194Z,15.92
2018-03-11T08:50:21.767Z,16.77
2018-03-11T08:51:22.338Z,17.25
2018-03-11T08:52:22.922Z,17.26
2018-03-11T08:53:23.494Z,17.06
2018-03-11T08:54:24.069Z,17.54
2018-03-11T08:55:24.640Z,18.01
2018-03-11T08:56:25.218Z,17.63
2018-03-11T08:57:25.799Z,16.96
2018-03-11T08:58:26.373Z,16.87
2018-03-11T08:59:26.946Z,16.59
2018-03-11T09:00:27.522Z,17.93
2018-03-11T09:01:28.097Z,18.31
2018-03-11T09:02:28.671Z,17.26
2018-03-11T09:03:29.245Z,18.69
2018-03-11T09:04:29.824Z,19.84
2018-03-11T09:05:30.396Z,19.93
2018-03-11T10:06:48.287Z,39.32
2018-03-11T10:07:48.864Z,38.76
2018-03-11T10:08:49.443Z,40.09
2018-03-11T10:09:50.015Z,39.32
2018-03-11T10:10:50.591Z,38.85
2018-03-11T10:11:51.165Z,39.23
2018-03-11T10:12:51.740Z,38.47
2018-03-11T10:13:52.315Z,37.04
2018-03-11T10:14:52.891Z,34.77
2018-03-11T10:15:53.465Z,33.42
2018-03-11T10:16:54.041Z,36.77
2018-03-11T10:17:54.616Z,38.49
2018-03-11T10:18:55.193Z,35.82
2018-03-11T10:19:55.768Z,41.26
2018-03-11T10:20:56.343Z,41.71
2018-03-11T10:21:56.917Z,38.87
2018-03-11T10:22:57.503Z,40.20
2018-03-11T10:23:58.090Z,38.96
2018-03-11T10:24:58.664Z,40.00
2018-03-11T10:25:59.288Z,37.42
2018-03-11T10:26:59.815Z,37.82
2018-03-11T10:28:00.394Z,37.92
2018-03-11T10:29:00.976Z,39.06
2018-03-11T10:30:01.563Z,38.49
2018-03-11T10:31:02.139Z,39.54
2018-03-11T10:32:02.713Z,39.35
2018-03-11T10:33:03.289Z,39.06
2018-03-11T10:34:03.865Z,40.78
2018-03-11T10:35:04.443Z,43.07
2018-03-11T10:36:05.018Z,45.27
2018-03-11T10:37:05.595Z,45.96
2018-03-11T10:38:06.182Z,49.98
2018-03-11T10:39:06.837Z,50.38
2018-03-11T10:40:07.334Z,54.21
2018-03-11T10:41:07.912Z,53.53
2018-03-11T10:42:08.490Z,54.59
2018-03-11T10:43:09.077Z,55.93
2018-03-11T10:44:09.653Z,58.89
2018-03-11T10:45:10.230Z,58.06
2018-03-11T10:46:10.807Z,57.48
2018-03-11T10:47:11.392Z,60.74
2018-03-11T10:48:11.971Z,60.83
2018-03-11T10:49:12.578Z,60.83
2018-03-11T10:50:13.124Z,61.12
2018-03-11T10:51:13.699Z,62.55
2018-03-11T10:52:14.277Z,61.98
2018-03-11T10:53:14.856Z,60.64
2018-03-11T10:54:15.433Z,61.22
2018-03-11T10:55:16.007Z,62.55
2018-03-11T10:56:16.586Z,61.98
2018-03-11T10:57:17.164Z,61.60
2018-03-11T10:58:17.741Z,61.12
2018-03-11T10:59:18.328Z,61.51
2018-03-11T11:00:18.906Z,60.26
2018-03-11T11:01:19.483Z,61.60
2018-03-11T11:02:20.062Z,61.51
2018-03-11T11:03:20.638Z,63.32
2018-03-11T11:04:21.217Z,64.37
2018-03-11T11:05:21.793Z,63.03
2018-03-11T11:06:22.374Z,63.70
2018-03-11T11:07:22.957Z,63.80
2018-03-11T11:08:23.551Z,61.51
2018-03-11T11:09:24.113Z,61.88
2018-03-11T11:10:24.690Z,62.84
2018-03-11T11:11:25.273Z,61.31
2018-03-11T11:12:25.855Z,62.55
2018-03-11T11:13:26.437Z,58.15
2018-03-11T11:14:27.008Z,58.83
2018-03-11T11:15:27.586Z,62.65
2018-03-11T11:16:28.164Z,59.78
2018-03-11T11:17:28.741Z,62.94
2018-03-11T11:18:29.316Z,63.03
2018-03-11T11:19:29.896Z,61.41
2018-03-11T11:20:30.484Z,62.27
2018-03-11T11:21:31.061Z,61.31
2018-03-11T11:22:31.638Z,63.13
2018-03-11T11:23:32.215Z,64.66
2018-03-11T11:24:32.840Z,63.45
2018-03-11T11:25:33.381Z,61.91
2018-03-11T11:26:33.946Z,60.77
2018-03-11T11:27:34.534Z,63.73
2018-03-11T11:28:35.112Z,66.03
2018-03-11T11:29:35.689Z,65.36
2018-03-11T11:30:36.277Z,66.03
2018-03-11T11:31:36.857Z,68.04
2018-03-11T11:32:37.432Z,64.12
2018-03-11T11:33:38.010Z,68.52
2018-03-11T11:34:38.587Z,71.39
2018-03-11T11:35:39.166Z,73.11
2018-03-11T11:36:39.745Z,75.89
2018-03-11T11:37:40.323Z,73.79
2018-03-11T11:38:40.906Z,74.26
2018-03-11T11:39:41.481Z,74.74
2018-03-11T11:40:42.058Z,75.70
2018-03-11T11:41:42.636Z,76.94
2018-03-11T11:42:43.216Z,76.75
2018-03-11T11:43:43.794Z,75.60
2018-03-11T11:44:44.380Z,79.14
2018-03-11T11:45:44.958Z,78.61
2018-03-11T11:46:45.538Z,78.70
2018-03-11T11:47:46.113Z,78.32
2018-03-11T11:48:46.735Z,78.61
2018-03-11T11:49:47.269Z,78.32
2018-03-11T11:50:47.846Z,78.80
2018-03-11T11:51:48.436Z,79.28
2018-03-11T11:52:49.015Z,78.03
2018-03-11T11:53:49.588Z,80.33
2018-03-11T11:54:50.166Z,78.89
2018-03-11T11:55:50.743Z,79.85
2018-03-11T11:56:51.319Z,80.24
2018-03-11T11:57:51.896Z,81.57
2018-03-11T11:58:52.474Z,80.62
2018-03-11T11:59:53.053Z,80.62
2018-03-11T12:00:53.630Z,80.71
2018-03-11T12:01:54.208Z,81.48
2018-03-11T12:02:54.797Z,79.85
2018-03-11T12:03:55.373Z,79.57
2018-03-11T12:04:55.950Z,80.33
2018-03-11T12:05:56.529Z,79.85
2018-03-11T12:06:57.105Z,78.99
2018-03-11T12:07:57.682Z,79.52
2018-03-11T12:08:58.259Z,81.34
2018-03-11T12:09:58.835Z,79.91
2018-03-11T12:10:59.412Z,77.61
2018-03-11T12:11:59.988Z,79.14
2018-03-11T12:13:00.566Z,77.70
2018-03-11T12:14:01.143Z,77.51
2018-03-11T12:15:01.720Z,78.57
2018-03-11T12:16:02.312Z,78.86
2018-03-11T12:17:02.891Z,79.24
2018-03-11T12:18:03.478Z,78.66
2018-03-11T12:19:04.067Z,78.76
2018-03-11T12:20:04.640Z,78.86
2018-03-11T12:21:05.217Z,78.09
2018-03-11T12:22:05.793Z,78.76
2018-03-11T12:23:06.372Z,78.47
2018-03-11T12:24:06.964Z,77.90
2018-03-11T12:25:07.523Z,77.42
2018-03-11T12:26:08.103Z,77.42
2018-03-11T12:27:08.688Z,77.51
2018-03-11T12:28:09.265Z,77.33
2018-03-11T12:29:09.843Z,77.90
2018-03-11T12:30:10.420Z,77.90
2018-03-11T12:31:10.998Z,78.09
2018-03-11T12:32:11.574Z,80.81
2018-03-11T12:33:12.152Z,80.62
2018-03-11T12:34:12.730Z,81.48
2018-03-11T12:35:13.318Z,81.77
2018-03-11T12:36:13.895Z,81.20
2018-03-11T12:37:14.473Z,82.43
2018-03-11T12:38:15.050Z,81.77
2018-03-11T12:39:15.627Z,81.29
2018-03-11T12:40:16.205Z,83.01
2018-03-11T12:41:16.795Z,82.82
2018-03-11T12:42:17.372Z,81.77
2018-03-11T12:43:17.949Z,82.53
2018-03-11T12:44:18.527Z,82.34
2018-03-11T12:45:19.157Z,83.49
2018-03-11T12:46:19.684Z,83.20
2018-03-11T12:47:20.260Z,85.02
2018-03-11T12:48:20.849Z,83.49
2018-03-11T12:49:21.429Z,83.20
2018-03-11T12:50:22.004Z,83.87
2018-03-11T12:51:22.584Z,84.26
2018-03-11T12:52:23.162Z,84.22
2018-03-11T12:53:23.752Z,85.21
2018-03-11T12:54:24.329Z,83.30
2018-03-11T12:55:24.906Z,83.78
2018-03-11T12:56:25.483Z,82.63
2018-03-11T12:57:26.060Z,83.49
2018-03-11T12:58:26.641Z,82.73
2018-03-11T12:59:27.216Z,83.01
2018-03-11T13:00:27.792Z,83.01
2018-03-11T13:01:28.367Z,82.92
2018-03-11T13:02:28.944Z,81.67
2018-03-11T13:03:29.524Z,82.15
2018-03-11T13:04:30.101Z,81.38
2018-03-11T13:05:30.691Z,81.96
2018-03-11T13:06:31.268Z,82.53
2018-03-11T13:07:31.844Z,82.92
2018-03-11T13:08:32.433Z,81.67
2018-03-11T13:09:33.010Z,82.63
2018-03-11T13:10:33.588Z,83.39
2018-03-11T13:11:34.165Z,83.30
2018-03-11T13:12:34.744Z,83.39
2018-03-11T13:13:35.320Z,83.30
2018-03-11T13:14:35.897Z,82.73
2018-03-11T13:15:36.477Z,83.11
2018-03-11T13:16:37.052Z,83.92
2018-03-11T13:17:37.628Z,85.02
2018-03-11T13:18:38.205Z,84.06
2018-03-11T13:19:38.783Z,85.69
2018-03-11T13:20:39.364Z,86.84
2018-03-11T13:21:39.941Z,85.69
2018-03-11T13:22:40.519Z,86.50
2018-03-11T13:23:41.098Z,86.50
2018-03-11T13:24:41.676Z,87.65
2018-03-11T13:25:42.264Z,85.25
2018-03-11T13:26:42.830Z,86.79
2018-03-11T13:27:43.409Z,86.12
2018-03-11T13:28:43.990Z,85.74
2018-03-11T13:29:44.566Z,84.97
2018-03-11T13:30:45.157Z,86.46
2018-03-11T13:31:45.735Z,88.42
2018-03-11T13:32:46.314Z,88.42
2018-03-11T13:33:46.898Z,87.27
2018-03-11T13:34:47.474Z,87.94
2018-03-11T13:35:48.056Z,87.17
2018-03-11T13:36:48.835Z,89.76
2018-03-11T13:37:49.412Z,88.32
2018-03-11T13:38:50.013Z,87.65
2018-03-11T13:39:50.583Z,86.60
2018-03-11T13:40:51.161Z,88.70
2018-03-11T13:41:51.739Z,88.13
2018-03-11T13:42:52.316Z,87.94
2018-03-11T13:43:52.895Z,87.84
2018-03-11T13:44:53.472Z,87.08
2018-03-11T13:45:54.050Z,86.31
2018-03-11T13:46:54.628Z,87.08
2018-03-11T13:47:55.216Z,88.23
2018-03-11T13:48:55.794Z,88.09
2018-03-11T13:49:56.371Z,86.98
2018-03-11T13:50:56.949Z,86.69
2018-03-11T13:51:57.557Z,87.74
2018-03-11T13:52:58.116Z,87.94
2018-03-11T13:53:58.699Z,88.03
2018-03-11T13:54:59.273Z,89.37
2018-03-11T13:55:59.855Z,87.37
2018-03-11T13:57:00.440Z,89.47
2018-03-11T13:58:01.030Z,88.23
2018-03-11T13:59:01.608Z,87.08
2018-03-11T14:00:02.188Z,87.27
2018-03-11T14:01:02.783Z,86.31
2018-03-11T14:02:03.361Z,86.31
2018-03-11T14:03:03.938Z,88.03
2018-03-11T14:04:04.517Z,88.70
2018-03-11T14:05:05.094Z,87.94
2018-03-11T14:06:05.729Z,87.08
2018-03-11T14:07:06.250Z,88.13
2018-03-11T14:08:06.836Z,87.08
2018-03-11T14:09:07.406Z,88.13